Aigle, Switzerland
Current Conditions -  °F | °C
As of 8:50 AM on Tuesday 21 Oct 2014 (Local Time) from LSMS Reporting Station
Broken Clouds Broken Clouds  
Wind Chill: 57°   Ceiling: 2000
Heat Index: 57°   Visibility: 6mi
Dew Point: 55°   Wind: 2mph
Humidity: 94%   Direction: NA
Pressure: 30.03"   Gusts: NA
Location:  46.32°N, 6.95°E
Report Text: LSMS 210650Z VRB02KT 9999 BKN020 14/13 Q1017
Loading
Personal Weather Stations






























Interactive Weather Map
Tropical Storm Tracking
New forecast layout! Learn more

10-Day Weather Forecast

Advertisements
Track Severe Weather on mobile